Time;durP1;ratioP1;P1;durP2;ratioP2;P2;SDS_P1;SDS_P2;PMS_P1;PMS_P2;Temp;Humidity;BMP_temperature;BMP_pressure;BME280_temperature;BME280_humidity;BME280_pressure;Samples;Min_cycle;Max_cycle;Signal;HPM_P1;HPM_P2
2021/05/31 00:00:07;;;;;;;6.12;4.28;;;;;;;12.00;85.77;99799.22;1608033;88;21112;-71
2021/05/31 00:02:34;;;;;;;6.00;3.25;;;;;;;12.01;85.36;99792.23;1601914;89;21103;-72
2021/05/31 00:05:00;;;;;;;3.55;2.70;;;;;;;12.05;84.96;99792.00;1602069;88;21055;-72
2021/05/31 00:07:26;;;;;;;8.13;3.72;;;;;;;12.09;84.33;99793.64;1601865;89;21746;-71
2021/05/31 00:09:55;;;;;;;4.33;2.55;;;;;;;12.06;83.96;99788.23;1598373;88;21093;-72
2021/05/31 00:12:23;;;;;;;6.03;2.90;;;;;;;12.05;83.75;99796.57;1579100;88;21030;-71
2021/05/31 00:14:51;;;;;;;4.10;3.62;;;;;;;11.99;83.18;99797.06;1614125;87;21063;-72
2021/05/31 00:17:18;;;;;;;2.60;2.40;;;;;;;11.96;83.58;99797.58;1588940;89;21043;-73
2021/05/31 00:19:46;;;;;;;9.90;4.78;;;;;;;11.96;83.09;99796.77;1574655;90;21015;-73
2021/05/31 00:22:14;;;;;;;13.95;2.67;;;;;;;11.93;83.09;99799.98;1573563;89;21322;-73
2021/05/31 00:24:40;;;;;;;8.48;2.45;;;;;;;11.93;82.56;99798.10;1600119;88;21070;-71
2021/05/31 00:27:07;;;;;;;3.45;2.65;;;;;;;11.93;82.42;99806.72;1600500;88;21087;-72
2021/05/31 00:29:33;;;;;;;6.25;2.33;;;;;;;11.94;82.25;99807.01;1598393;89;21104;-73
2021/05/31 00:32:00;;;;;;;3.22;2.92;;;;;;;11.96;82.32;99808.36;1581259;90;21202;-72
2021/05/31 00:34:28;;;;;;;6.28;4.40;;;;;;;11.96;82.06;99802.97;1593160;90;21579;-74
2021/05/31 00:36:54;;;;;;;7.03;2.87;;;;;;;11.95;82.02;99809.95;1581658;90;20995;-71
2021/05/31 00:39:22;;;;;;;2.42;2.10;;;;;;;11.92;82.03;99813.17;1594395;89;21603;-72
2021/05/31 00:41:51;;;;;;;3.65;2.83;;;;;;;11.90;81.97;99799.12;1599646;87;21647;-71
2021/05/31 00:44:18;;;;;;;3.35;3.05;;;;;;;11.90;82.06;99814.77;1607240;88;21103;-74
2021/05/31 00:46:47;;;;;;;5.40;2.77;;;;;;;11.91;82.17;99808.31;1607259;88;21094;-73
2021/05/31 00:49:17;;;;;;;2.60;2.37;;;;;;;11.93;82.00;99804.02;1603891;88;20980;-73
2021/05/31 00:51:44;;;;;;;3.22;2.92;;;;;;;11.92;82.04;99805.91;1599920;89;22599;-72
2021/05/31 00:54:11;;;;;;;5.53;2.62;;;;;;;11.87;82.16;99805.04;1589346;87;21091;-73
2021/05/31 00:56:40;;;;;;;2.65;2.45;;;;;;;11.84;82.38;99808.25;1602422;88;21113;-72
2021/05/31 00:59:09;;;;;;;6.62;2.45;;;;;;;11.83;82.38;99810.13;1612154;88;21179;-73
2021/05/31 01:01:35;;;;;;;4.42;3.08;;;;;;;11.85;82.54;99803.94;1581274;90;21086;-72
2021/05/31 01:04:02;;;;;;;2.80;2.55;;;;;;;11.86;82.70;99813.66;1593165;89;21094;-71
2021/05/31 01:06:36;;;;;;;3.35;2.60;;;;;;;11.87;82.90;99810.43;1581110;90;22374;-71
2021/05/31 01:09:12;;;;;;;4.33;2.50;;;;;;;11.85;82.79;99801.77;1573677;89;21109;-72
2021/05/31 01:12:04;;;;;;;4.90;3.12;;;;;;;11.82;82.89;99800.95;1605845;87;21039;-72
2021/05/31 01:14:50;;;;;;;4.83;2.83;;;;;;;11.84;82.93;99790.20;1582040;90;21102;-73
2021/05/31 01:17:38;;;;;;;9.05;3.77;;;;;;;11.86;82.89;99802.87;1564751;91;21729;-74
2021/05/31 01:20:16;;;;;;;5.60;3.42;;;;;;;11.82;83.16;99802.30;1573097;89;21134;-71
2021/05/31 01:22:43;;;;;;;34.55;6.87;;;;;;;11.80;83.26;99806.05;1604622;89;21227;-73
2021/05/31 01:25:51;;;;;;;5.03;2.95;;;;;;;11.80;83.30;99805.23;1603194;89;21143;-74
2021/05/31 01:28:38;;;;;;;7.40;3.35;;;;;;;11.76;83.40;99790.12;1598247;89;21070;-74
2021/05/31 01:31:05;;;;;;;14.28;4.17;;;;;;;11.76;82.99;99787.42;1603700;88;21126;-70
2021/05/31 01:33:33;;;;;;;5.50;3.33;;;;;;;11.72;83.13;99780.92;1606983;89;21055;-70
2021/05/31 01:36:00;;;;;;;10.53;3.30;;;;;;;11.69;83.13;99790.03;1604256;88;21957;-71
2021/05/31 01:38:26;;;;;;;5.65;2.85;;;;;;;11.69;83.21;99792.72;1590321;90;21705;-72
2021/05/31 01:40:54;;;;;;;8.73;3.60;;;;;;;11.68;83.29;99792.44;1592266;89;21043;-73
2021/05/31 01:43:20;;;;;;;4.17;2.85;;;;;;;11.67;83.77;99791.62;1607143;88;21086;-72
2021/05/31 01:45:47;;;;;;;4.85;3.25;;;;;;;11.66;83.84;99796.72;1608544;88;21145;-72
2021/05/31 01:48:13;;;;;;;3.42;3.12;;;;;;;11.66;84.04;99795.91;1610901;87;21623;-73
2021/05/31 01:50:40;;;;;;;5.05;3.27;;;;;;;11.61;84.15;99799.36;1608949;88;21066;-70
2021/05/31 01:53:06;;;;;;;4.85;2.20;;;;;;;11.61;84.15;99798.55;1609440;89;21595;-71
2021/05/31 01:55:33;;;;;;;6.58;3.02;;;;;;;11.61;84.11;99802.05;1637873;87;21072;-70
2021/05/31 01:57:59;;;;;;;3.37;2.50;;;;;;;11.61;83.96;99801.23;1633102;87;21126;-70
2021/05/31 02:00:26;;;;;;;10.75;3.58;;;;;;;11.61;84.10;99804.75;1634600;86;21180;-72
2021/05/31 02:02:53;;;;;;;3.85;2.87;;;;;;;11.60;84.16;99807.72;1610201;87;21063;-71
2021/05/31 02:05:19;;;;;;;11.22;3.58;;;;;;;11.64;84.29;99815.56;1616049;87;21063;-72
2021/05/31 02:07:46;;;;;;;2.55;2.35;;;;;;;11.65;84.40;99807.77;1625207;87;21369;-71
2021/05/31 02:10:14;;;;;;;6.03;3.75;;;;;;;11.64;84.46;99816.38;1609630;88;20995;-70
2021/05/31 02:12:51;;;;;;;7.47;2.75;;;;;;;11.66;84.58;99813.41;1601684;87;21026;-70
2021/05/31 02:15:35;;;;;;;5.55;2.72;;;;;;;11.70;84.56;99814.56;1608027;89;21023;-71
2021/05/31 02:18:24;;;;;;;4.33;2.58;;;;;;;11.74;84.44;99822.44;1614027;87;21038;-71
2021/05/31 02:20:58;;;;;;;7.33;3.20;;;;;;;11.73;84.38;99818.11;1637418;87;21061;-71
2021/05/31 02:23:24;;;;;;;4.62;2.25;;;;;;;11.71;84.30;99825.59;1632758;86;21067;-69
2021/05/31 02:25:51;;;;;;;4.45;1.95;;;;;;;11.72;84.49;99822.69;1589649;89;21197;-70
2021/05/31 02:28:17;;;;;;;3.15;2.25;;;;;;;11.75;84.47;99826.73;1602109;89;21630;-70
2021/05/31 02:30:44;;;;;;;9.03;3.12;;;;;;;11.75;84.47;99826.21;1602135;89;21082;-69
2021/05/31 02:33:11;;;;;;;3.87;3.17;;;;;;;11.77;84.55;99823.27;1602002;88;21594;-71
2021/05/31 02:35:38;;;;;;;8.85;3.25;;;;;;;11.76;84.54;99822.98;1601987;89;21060;-70
2021/05/31 02:38:07;;;;;;;5.85;3.15;;;;;;;11.76;84.68;99822.98;1602099;89;21536;-69
2021/05/31 02:40:35;;;;;;;5.80;3.20;;;;;;;11.74;84.75;99827.83;1588655;89;21595;-71
2021/05/31 02:43:04;;;;;;;3.37;2.65;;;;;;;11.72;85.00;99827.23;1571477;91;21084;-70
2021/05/31 02:45:32;;;;;;;4.67;3.67;;;;;;;11.70;85.18;99831.52;1598751;88;21023;-70
2021/05/31 02:47:59;;;;;;;3.80;3.20;;;;;;;11.65;85.58;99836.88;1600537;89;21143;-70
2021/05/31 02:50:27;;;;;;;7.62;3.42;;;;;;;11.64;85.73;99833.89;1596860;89;21146;-70
2021/05/31 02:52:55;;;;;;;4.53;3.92;;;;;;;11.63;86.04;99835.48;1594720;90;21091;-73
2021/05/31 02:55:24;;;;;;;6.22;4.25;;;;;;;11.59;86.41;99841.10;1599145;89;21607;-70
2021/05/31 02:57:51;;;;;;;6.83;3.70;;;;;;;11.59;86.69;99839.23;1601915;89;21047;-71
2021/05/31 03:00:20;;;;;;;4.20;3.83;;;;;;;11.65;86.83;99840.92;1600375;88;21680;-77
2021/05/31 03:02:48;;;;;;;5.53;3.02;;;;;;;11.68;86.75;99838.23;1602122;89;21303;-72
2021/05/31 03:05:18;;;;;;;11.75;5.28;;;;;;;11.67;86.88;99843.34;1581809;90;21050;-78
2021/05/31 03:07:45;;;;;;;12.35;5.17;;;;;;;11.65;86.90;99840.92;1595253;89;21123;-70
2021/05/31 03:10:13;;;;;;;8.43;3.33;;;;;;;11.66;86.80;99836.31;1588590;89;21011;-82
2021/05/31 03:12:41;;;;;;;10.63;3.22;;;;;;;11.70;86.78;99832.86;1602180;89;21119;-74
2021/05/31 03:15:10;;;;;;;5.47;3.52;;;;;;;11.71;86.50;99832.33;1597735;89;21116;-71
2021/05/31 03:17:36;;;;;;;4.25;2.70;;;;;;;11.67;86.38;99835.25;1594873;89;21043;-73
2021/05/31 03:20:06;;;;;;;5.97;3.05;;;;;;;11.64;86.29;99832.55;1596651;88;21099;-73
2021/05/31 03:22:33;;;;;;;5.22;3.17;;;;;;;11.67;86.35;99836.60;1603721;89;21147;-73
2021/05/31 03:25:00;;;;;;;6.35;3.77;;;;;;;11.68;86.00;99832.31;1604863;88;20990;-69
2021/05/31 03:27:26;;;;;;;4.12;3.72;;;;;;;11.68;85.98;99828.27;1584700;89;21299;-69
2021/05/31 03:29:53;;;;;;;13.70;10.68;;;;;;;11.69;85.82;99834.48;1604373;89;21126;-71
2021/05/31 03:32:19;;;;;;;9.73;3.27;;;;;;;11.66;85.71;99823.66;1607450;87;21055;-70
2021/05/31 03:34:46;;;;;;;6.75;3.27;;;;;;;11.64;85.14;99824.47;1607353;87;21236;-72
2021/05/31 03:37:13;;;;;;;7.22;4.08;;;;;;;11.67;84.82;99824.48;1598448;87;21103;-71
2021/05/31 03:39:40;;;;;;;3.85;3.50;;;;;;;11.72;84.50;99831.27;1606758;88;21153;-71
2021/05/31 03:42:07;;;;;;;7.97;4.00;;;;;;;11.76;83.98;99829.19;1590522;90;21688;-73
2021/05/31 03:44:35;;;;;;;5.22;3.47;;;;;;;11.76;83.27;99827.02;1603003;89;21014;-70
2021/05/31 03:47:02;;;;;;;4.05;3.58;;;;;;;11.75;83.41;99832.13;1603668;88;21077;-70
2021/05/31 03:49:29;;;;;;;6.67;2.83;;;;;;;11.79;83.51;99833.27;1598518;88;21118;-72
2021/05/31 03:51:57;;;;;;;5.40;2.80;;;;;;;11.85;83.20;99833.58;1603254;87;21212;-72
2021/05/31 03:54:24;;;;;;;4.30;2.65;;;;;;;11.93;82.77;99838.53;1628787;86;21145;-73
2021/05/31 03:56:50;;;;;;;6.20;2.85;;;;;;;11.97;82.08;99842.88;1607659;87;21118;-71
2021/05/31 03:59:18;;;;;;;3.40;2.75;;;;;;;12.00;81.82;99839.66;1614722;87;21095;-72
2021/05/31 04:01:47;;;;;;;6.72;2.92;;;;;;;12.02;81.37;99842.39;1633414;87;21105;-72
2021/05/31 04:04:13;;;;;;;4.37;3.12;;;;;;;12.01;81.44;99838.06;1633519;86;21138;-71
2021/05/31 04:11:55;;;;;;;3.02;2.15;;;;;;;12.12;81.06;99831.70;1633935;87;21591;-72
2021/05/31 04:14:21;;;;;;;6.83;3.50;;;;;;;12.21;80.77;99825.30;1635553;87;21069;-71
2021/05/31 04:16:50;;;;;;;12.25;5.30;;;;;;;12.25;80.63;99827.75;1633144;86;21158;-70
2021/05/31 04:19:18;;;;;;;4.85;3.12;;;;;;;12.28;80.34;99829.14;1614683;87;21022;-70
2021/05/31 04:21:50;;;;;;;5.22;3.12;;;;;;;12.32;80.10;99831.59;1637946;86;21118;-71
2021/05/31 04:24:17;;;;;;;5.17;3.42;;;;;;;12.37;80.21;99830.29;1632842;87;21090;-69
2021/05/31 04:26:44;;;;;;;6.62;3.37;;;;;;;12.36;79.49;99829.47;1631826;87;22162;-70
2021/05/31 04:29:12;;;;;;;6.62;3.37;;;;;;;12.38;79.22;99830.02;1634675;87;21093;-70
2021/05/31 04:31:40;;;;;;;3.10;2.52;;;;;;;12.41;79.04;99836.25;1613421;87;21080;-74
2021/05/31 04:34:09;;;;;;;2.47;2.27;;;;;;;12.44;79.19;99838.96;1633081;87;21061;-73
2021/05/31 04:36:35;;;;;;;6.15;3.37;;;;;;;12.48;79.23;99844.92;1633542;87;21110;-69
2021/05/31 04:39:05;;;;;;;7.42;3.55;;;;;;;12.46;79.96;99843.04;1613253;87;21026;-72
2021/05/31 04:41:33;;;;;;;6.47;3.10;;;;;;;12.44;79.67;99845.70;1633830;87;21101;-71
2021/05/31 04:44:00;;;;;;;4.85;3.05;;;;;;;12.47;79.00;99839.81;1628335;87;21038;-71
2021/05/31 04:46:27;;;;;;;5.70;3.62;;;;;;;12.48;78.85;99844.92;1610973;87;21030;-69
2021/05/31 04:48:54;;;;;;;3.30;2.98;;;;;;;12.51;78.87;99844.97;1633623;87;21123;-69
2021/05/31 04:51:22;;;;;;;4.67;2.90;;;;;;;12.52;78.73;99856.01;1633548;87;21623;-69
2021/05/31 04:53:49;;;;;;;3.50;2.67;;;;;;;12.53;78.75;99861.16;1600280;89;21113;-71
2021/05/31 04:56:16;;;;;;;2.27;2.08;;;;;;;12.48;78.25;99858.42;1593714;87;21127;-71
2021/05/31 04:58:42;;;;;;;3.92;3.45;;;;;;;12.47;78.20;99870.83;1581630;90;21111;-71
2021/05/31 05:01:09;;;;;;;7.05;3.27;;;;;;;12.49;78.48;99869.49;1595947;89;21134;-70
2021/05/31 05:03:35;;;;;;;5.15;3.27;;;;;;;12.49;78.78;99869.49;1607364;89;21134;-70
2021/05/31 05:06:02;;;;;;;4.12;3.12;;;;;;;12.50;78.91;99869.78;1587188;87;21118;-70
2021/05/31 05:08:29;;;;;;;7.25;3.33;;;;;;;12.52;79.37;99874.36;1602508;89;21611;-69
2021/05/31 05:10:56;;;;;;;6.50;2.65;;;;;;;12.53;79.48;99874.64;1607080;88;21115;-70
2021/05/31 05:13:23;;;;;;;4.28;2.77;;;;;;;12.54;79.50;99872.77;1605269;87;21598;-70
2021/05/31 05:15:51;;;;;;;3.27;2.92;;;;;;;12.56;79.58;99876.03;1605987;89;21131;-69
2021/05/31 05:18:18;;;;;;;5.47;2.75;;;;;;;12.61;79.29;99870.67;1600346;87;21055;-70
2021/05/31 05:20:44;;;;;;;7.20;3.35;;;;;;;12.66;78.67;99862.05;1581014;89;21130;-71
2021/05/31 05:23:11;;;;;;;8.00;3.02;;;;;;;12.67;78.34;99868.27;1556292;91;21083;-69
2021/05/31 05:25:38;;;;;;;4.28;3.35;;;;;;;12.65;78.65;99865.03;1556923;90;21721;-71
2021/05/31 05:28:05;;;;;;;4.40;2.40;;;;;;;12.67;77.95;99873.13;1611214;88;21058;-69
2021/05/31 05:30:33;;;;;;;4.33;2.77;;;;;;;12.66;77.92;99868.02;1611042;88;21086;-71
2021/05/31 05:33:00;;;;;;;4.83;2.90;;;;;;;12.65;77.33;99869.90;1597707;89;21038;-70
2021/05/31 05:35:39;;;;;;;3.00;2.65;;;;;;;12.64;77.15;99873.66;1579046;90;21637;-73
2021/05/31 05:43:42;;;;;;;6.72;3.15;;;;;;;12.57;77.19;99877.09;1600159;88;21153;-70
2021/05/31 05:46:22;;;;;;;10.48;2.90;;;;;;;12.59;77.05;99874.97;1568744;90;21074;-71
2021/05/31 05:48:31;;;;;;;7.35;3.05;;;;;;;12.64;77.07;99876.36;1549770;91;21074;-71
2021/05/31 05:51:06;;;;;;;4.42;3.10;;;;;;;12.70;76.89;99876.40;1552577;91;21035;-69
2021/05/31 05:53:39;;;;;;;4.92;3.37;;;;;;;12.72;76.72;99880.98;1574515;90;21174;-74
2021/05/31 05:56:09;;;;;;;6.17;4.07;;;;;;;12.76;76.86;99877.50;1607164;88;21622;-71
2021/05/31 05:58:36;;;;;;;3.47;2.75;;;;;;;12.77;76.77;99875.09;1606384;89;21002;-70
2021/05/31 06:01:03;;;;;;;7.25;2.50;;;;;;;12.78;76.69;99878.61;1581570;90;21158;-70
2021/05/31 06:03:29;;;;;;;5.40;2.70;;;;;;;12.78;76.54;99878.07;1584415;90;21152;-70
2021/05/31 06:05:56;;;;;;;9.68;3.37;;;;;;;12.80;76.43;99875.94;1580914;90;21115;-70
2021/05/31 06:08:23;;;;;;;3.65;2.60;;;;;;;12.81;76.70;99871.33;1588337;89;21102;-70
2021/05/31 06:10:52;;;;;;;9.65;3.17;;;;;;;12.91;76.78;99876.80;1579495;90;21025;-74
2021/05/31 06:13:19;;;;;;;3.10;2.87;;;;;;;12.97;76.79;99877.93;1612015;87;21626;-69
2021/05/31 06:15:45;;;;;;;3.83;2.77;;;;;;;13.04;76.21;99875.80;1609680;88;21084;-72
2021/05/31 06:18:12;;;;;;;3.87;2.60;;;;;;;13.03;75.19;99880.94;1557052;90;21084;-70
2021/05/31 06:20:38;;;;;;;5.20;2.70;;;;;;;13.06;74.46;99872.84;1552621;91;21158;-70
2021/05/31 06:23:05;;;;;;;3.02;2.80;;;;;;;13.09;74.69;99871.77;1570285;90;21055;-71
2021/05/31 06:25:32;;;;;;;2.65;2.27;;;;;;;13.11;74.62;99878.30;1573582;90;21695;-71
2021/05/31 06:28:05;;;;;;;4.55;2.25;;;;;;;13.14;74.81;99881.03;1593325;89;21067;-70
2021/05/31 06:30:27;;;;;;;2.92;2.17;;;;;;;13.14;74.39;99878.34;1564103;90;21060;-71
2021/05/31 06:32:54;;;;;;;4.70;2.85;;;;;;;13.17;74.52;99875.91;1586189;90;21689;-70
2021/05/31 06:35:21;;;;;;;2.02;1.92;;;;;;;13.13;73.95;99874.00;1561909;90;21643;-71
2021/05/31 06:37:48;;;;;;;2.87;2.08;;;;;;;13.15;73.95;99874.53;1586228;90;21085;-70
2021/05/31 06:40:15;;;;;;;3.70;2.52;;;;;;;13.22;73.75;99875.12;1581594;90;21086;-70
2021/05/31 06:42:43;;;;;;;3.42;2.35;;;;;;;13.25;73.70;99868.66;1593342;90;21118;-72
2021/05/31 06:45:16;;;;;;;3.98;2.08;;;;;;;13.29;72.73;99869.75;1560232;90;22037;-72
2021/05/31 06:47:42;;;;;;;5.62;2.92;;;;;;;13.32;72.32;99873.30;1596722;88;21400;-72
2021/05/31 06:50:11;;;;;;;6.80;2.98;;;;;;;13.30;72.23;99880.84;1600065;89;21581;-72
2021/05/31 06:52:37;;;;;;;8.55;3.58;;;;;;;13.24;72.12;99878.36;1588020;89;21086;-70
2021/05/31 06:55:09;;;;;;;4.85;2.50;;;;;;;13.27;72.59;99880.56;1594413;89;21070;-69
2021/05/31 06:57:36;;;;;;;7.08;2.70;;;;;;;13.31;71.90;99877.59;1607498;89;21143;-70
2021/05/31 07:00:05;;;;;;;2.77;1.85;;;;;;;13.23;71.52;99884.86;1597091;89;20984;-70
2021/05/31 07:02:32;;;;;;;2.45;1.87;;;;;;;13.21;71.69;99888.35;1606168;88;21614;-71
2021/05/31 07:05:00;;;;;;;8.23;3.85;;;;;;;13.28;72.01;99888.41;1598258;89;21098;-71
2021/05/31 07:07:27;;;;;;;1.75;1.65;;;;;;;13.31;71.54;99885.17;1607333;88;21646;-71
2021/05/31 07:09:55;;;;;;;4.00;1.42;;;;;;;13.31;71.07;99888.41;1607404;87;21614;-71
2021/05/31 07:12:21;;;;;;;1.25;1.15;;;;;;;13.34;70.49;99883.81;1589881;89;21102;-73
2021/05/31 07:14:51;;;;;;;4.00;3.10;;;;;;;13.38;70.62;99883.02;1586776;89;21069;-70
2021/05/31 07:17:17;;;;;;;3.75;1.50;;;;;;;13.42;70.80;99886.85;1581404;90;21199;-70
2021/05/31 07:19:45;;;;;;;1.30;1.20;;;;;;;13.47;70.20;99893.63;1593393;89;21618;-71
2021/05/31 07:22:26;;;;;;;2.62;1.40;;;;;;;13.47;69.21;99894.98;1561485;90;21890;-70
2021/05/31 07:24:53;;;;;;;1.22;1.12;;;;;;;13.51;69.09;99896.08;1563359;90;21004;-70
2021/05/31 07:27:19;;;;;;;5.12;1.57;;;;;;;13.58;68.62;99899.87;1562861;90;21104;-71
2021/05/31 07:29:46;;;;;;;2.00;1.25;;;;;;;13.58;67.57;99896.34;1563108;90;21121;-71
2021/05/31 07:32:13;;;;;;;2.90;1.65;;;;;;;13.58;67.32;99898.52;1580426;90;21077;-70
2021/05/31 07:34:42;;;;;;;2.02;1.77;;;;;;;13.54;67.22;99896.89;1562913;90;21104;-69
2021/05/31 07:37:08;;;;;;;1.37;1.27;;;;;;;13.53;67.51;99905.25;1584136;90;21118;-70
2021/05/31 07:39:35;;;;;;;2.90;1.60;;;;;;;13.50;67.54;99905.25;1579535;89;36594;-70
2021/05/31 07:42:01;;;;;;;3.35;1.20;;;;;;;13.51;67.46;99904.72;1583533;90;21120;-71
2021/05/31 07:44:28;;;;;;;3.45;2.60;;;;;;;13.51;67.65;99898.78;1584036;90;21077;-70
2021/05/31 07:46:55;;;;;;;2.02;1.20;;;;;;;13.58;67.11;99902.57;1600107;89;21809;-70
2021/05/31 07:49:22;;;;;;;1.20;1.10;;;;;;;13.61;66.88;99902.06;1607787;88;21029;-72
2021/05/31 07:51:51;;;;;;;5.35;1.80;;;;;;;13.64;66.54;99906.11;1587206;89;21067;-72
2021/05/31 07:54:21;;;;;;;3.30;1.40;;;;;;;13.69;66.56;99908.30;1609745;89;21032;-71
2021/05/31 07:56:47;;;;;;;3.00;1.30;;;;;;;13.72;65.91;99906.94;1609891;89;21100;-70
2021/05/31 07:59:14;;;;;;;1.42;1.32;;;;;;;13.72;65.51;99911.00;1586058;89;21098;-71
2021/05/31 08:01:40;;;;;;;2.15;1.70;;;;;;;13.64;65.34;99918.27;1604955;88;21043;-71
2021/05/31 08:04:08;;;;;;;2.72;1.70;;;;;;;13.60;65.87;99916.64;1605122;89;21051;-71
2021/05/31 08:06:35;;;;;;;3.40;1.52;;;;;;;13.58;65.37;99920.67;1606175;88;21067;-70
2021/05/31 08:09:03;;;;;;;5.08;1.10;;;;;;;13.56;65.49;99918.25;1606957;89;21021;-71
2021/05/31 08:11:33;;;;;;;3.40;1.20;;;;;;;13.60;65.27;99922.05;1609896;89;21123;-71
2021/05/31 08:14:01;;;;;;;1.47;1.30;;;;;;;13.63;64.85;99916.64;1609738;89;21053;-71
2021/05/31 08:16:29;;;;;;;1.72;1.07;;;;;;;13.67;65.21;99929.36;1609668;89;21005;-77
2021/05/31 08:18:57;;;;;;;1.42;1.17;;;;;;;13.68;65.34;99930.17;1607275;89;21112;-71
2021/05/31 08:21:24;;;;;;;9.98;1.80;;;;;;;13.71;65.69;99933.19;1608008;89;21117;-69
2021/05/31 08:23:51;;;;;;;4.70;1.70;;;;;;;13.72;65.55;99924.52;1602312;88;21080;-69
2021/05/31 08:26:19;;;;;;;3.02;1.60;;;;;;;13.71;65.61;99933.19;1595345;89;21043;-71
2021/05/31 08:28:47;;;;;;;3.17;1.60;;;;;;;13.70;65.77;99927.50;1576150;90;21090;-71
2021/05/31 08:31:14;;;;;;;3.72;1.90;;;;;;;13.68;65.89;99931.00;1580084;89;21726;-70
2021/05/31 08:33:41;;;;;;;3.08;2.25;;;;;;;13.63;66.51;99935.02;1576712;90;21114;-71
2021/05/31 08:36:09;;;;;;;1.80;1.70;;;;;;;13.57;67.72;99932.05;1568548;90;21049;-71
2021/05/31 08:38:36;;;;;;;3.02;1.92;;;;;;;13.53;68.14;99932.27;1571804;90;21010;-70
2021/05/31 08:41:04;;;;;;;2.12;1.47;;;;;;;13.49;69.01;99934.70;1580443;90;21595;-70
2021/05/31 08:43:31;;;;;;;2.02;1.45;;;;;;;13.51;69.22;99935.80;1555701;91;21583;-72
2021/05/31 08:45:57;;;;;;;2.95;2.72;;;;;;;13.54;68.84;99928.50;1556767;90;21093;-72
2021/05/31 08:48:25;;;;;;;2.50;1.87;;;;;;;13.63;67.83;99929.62;1576796;91;22080;-71
2021/05/31 08:50:51;;;;;;;3.55;1.37;;;;;;;13.77;67.05;99921.30;1555909;91;21103;-71
2021/05/31 08:53:20;;;;;;;2.33;1.30;;;;;;;13.90;65.43;99927.58;1555598;91;21011;-71
2021/05/31 08:55:48;;;;;;;1.65;1.50;;;;;;;13.94;65.42;99920.56;1590724;90;21601;-70
2021/05/31 08:58:15;;;;;;;3.85;1.70;;;;;;;14.01;66.16;99922.17;1572177;90;21593;-70
2021/05/31 09:00:42;;;;;;;1.67;1.57;;;;;;;14.08;65.85;99919.50;1566988;90;21613;-72
2021/05/31 09:03:09;;;;;;;2.77;1.45;;;;;;;14.14;65.47;99908.98;1576445;89;21133;-70
2021/05/31 09:05:41;;;;;;;1.85;1.20;;;;;;;14.20;65.84;99913.30;1561569;90;21058;-68
2021/05/31 09:08:17;;;;;;;1.90;1.07;;;;;;;14.27;63.60;99915.75;1557300;92;21486;-70
2021/05/31 09:10:52;;;;;;;1.35;1.10;;;;;;;14.30;63.77;99913.84;1574241;90;21111;-70
2021/05/31 09:13:40;;;;;;;1.10;1.00;;;;;;;14.31;64.10;99916.30;1576612;90;21971;-72
2021/05/31 09:16:21;;;;;;;1.50;1.20;;;;;;;14.34;64.06;99913.58;1557354;90;21635;-72
2021/05/31 09:19:04;;;;;;;1.72;1.22;;;;;;;14.35;63.84;99917.37;1590738;90;21073;-72
2021/05/31 09:21:36;;;;;;;4.28;1.15;;;;;;;14.34;63.84;99920.34;1572385;90;21078;-69
2021/05/31 09:24:05;;;;;;;1.47;1.07;;;;;;;14.32;63.86;99921.98;1595520;88;21118;-71
2021/05/31 09:26:48;;;;;;;1.20;1.10;;;;;;;14.34;63.58;99924.41;1605622;89;21268;-70
2021/05/31 09:29:15;;;;;;;1.15;1.05;;;;;;;14.32;62.37;99922.52;1606970;89;21017;-70
2021/05/31 09:31:43;;;;;;;1.07;1.02;;;;;;;14.34;62.59;99931.98;1608500;88;21610;-74
2021/05/31 09:34:12;;;;;;;2.15;1.70;;;;;;;14.36;62.40;99928.52;1584367;89;21052;-71
2021/05/31 09:36:56;;;;;;;1.40;1.30;;;;;;;14.42;62.53;99923.92;1606840;88;21069;-71
2021/05/31 09:39:40;;;;;;;7.08;1.50;;;;;;;14.46;62.86;99929.06;1600849;88;21207;-70
2021/05/31 09:42:15;;;;;;;3.27;1.12;;;;;;;14.60;63.64;99925.28;1559489;90;21057;-70
2021/05/31 09:44:45;;;;;;;2.62;1.30;;;;;;;14.65;62.33;99934.22;1567017;89;21060;-71
2021/05/31 09:47:12;;;;;;;1.60;1.32;;;;;;;14.67;62.69;99932.06;1626118;88;21051;-70
2021/05/31 09:49:39;;;;;;;2.55;2.12;;;;;;;14.71;63.16;99931.80;1628644;86;21079;-76
2021/05/31 09:52:12;;;;;;;0.85;0.80;;;;;;;14.71;62.98;99934.50;1626564;86;21130;-71
2021/05/31 09:54:43;;;;;;;3.98;1.27;;;;;;;14.71;62.35;99940.45;1613613;88;21647;-75
2021/05/31 09:57:31;;;;;;;1.90;1.65;;;;;;;14.68;62.22;99931.50;1626385;88;21032;-72
2021/05/31 10:00:05;;;;;;;2.00;1.40;;;;;;;14.67;62.63;99932.61;1634902;86;21088;-72
2021/05/31 10:05:35;;;;;;;4.28;1.40;;;;;;;14.59;62.68;99943.95;1625775;86;21801;-73
2021/05/31 10:10:24;;;;;;;5.20;1.50;;;;;;;14.55;62.56;99940.16;1571337;89;21101;-73
2021/05/31 10:12:55;;;;;;;0.98;0.93;;;;;;;14.62;62.39;99945.60;1623686;87;21545;-70
2021/05/31 10:15:26;;;;;;;2.07;1.00;;;;;;;14.75;61.64;99940.99;1615290;88;21336;-70
2021/05/31 10:17:59;;;;;;;5.83;1.67;;;;;;;14.81;60.31;99939.10;1623257;88;21113;-76
2021/05/31 10:20:29;;;;;;;1.20;1.10;;;;;;;14.80;59.59;99947.77;1601462;88;21034;-73
2021/05/31 10:22:56;;;;;;;1.45;1.35;;;;;;;14.78;59.47;99943.69;1606769;89;21112;-70
2021/05/31 10:25:27;;;;;;;5.72;2.95;;;;;;;14.73;59.85;99943.69;1585592;89;21081;-73
2021/05/31 10:28:08;;;;;;;13.45;2.77;;;;;;;14.69;59.68;99943.96;1608025;89;21158;-73
2021/05/31 10:30:48;;;;;;;4.87;1.87;;;;;;;14.67;60.12;99949.66;1609095;89;21065;-68
2021/05/31 10:33:20;;;;;;;1.80;1.00;;;;;;;14.64;59.83;99946.13;1609312;89;21149;-68
2021/05/31 10:35:49;;;;;;;5.50;1.70;;;;;;;14.62;59.75;99944.78;1609240;89;21501;-72
2021/05/31 10:38:20;;;;;;;2.10;0.90;;;;;;;14.59;60.28;99949.37;1609438;89;21125;-73
2021/05/31 10:40:52;;;;;;;2.40;1.30;;;;;;;14.61;60.11;99943.16;1609176;89;21036;-73
2021/05/31 10:43:21;;;;;;;1.70;1.22;;;;;;;14.65;59.78;99949.65;1593779;87;21073;-74
2021/05/31 10:45:50;;;;;;;3.10;1.00;;;;;;;14.66;59.58;99947.22;1605667;88;21045;-74
2021/05/31 10:48:20;;;;;;;3.83;1.52;;;;;;;14.64;59.78;99945.31;1606816;87;21591;-80
2021/05/31 10:50:58;;;;;;;2.22;1.17;;;;;;;14.62;59.67;99947.49;1609318;87;21055;-72
2021/05/31 10:53:37;;;;;;;4.72;1.20;;;;;;;14.63;59.93;99945.84;1617904;87;21238;-75
2021/05/31 10:56:19;;;;;;;2.15;1.10;;;;;;;14.65;59.90;99945.05;1597913;88;22234;-72
2021/05/31 10:58:50;;;;;;;2.47;2.08;;;;;;;14.72;59.98;99948.28;1604627;87;20998;-73
2021/05/31 11:01:24;;;;;;;1.87;1.40;;;;;;;14.79;59.85;99946.67;1606612;89;21107;-70
2021/05/31 11:04:01;;;;;;;1.45;1.35;;;;;;;14.82;59.62;99948.28;1561381;90;21057;-69
2021/05/31 11:06:32;;;;;;;1.42;1.32;;;;;;;14.88;59.77;99946.93;1599161;89;21069;-68
2021/05/31 11:09:13;;;;;;;4.35;1.52;;;;;;;14.94;59.63;99948.02;1607853;88;21706;-68
2021/05/31 11:11:52;;;;;;;1.95;1.60;;;;;;;15.01;59.14;99943.70;1607956;89;27172;-74
2021/05/31 11:14:42;;;;;;;3.80;3.50;;;;;;;15.08;59.16;99946.38;1607623;89;21129;-69
2021/05/31 11:17:14;;;;;;;4.35;1.57;;;;;;;15.10;58.01;99940.70;1611910;87;21637;-74
2021/05/31 11:19:46;;;;;;;1.40;1.30;;;;;;;15.10;58.05;99947.48;1634145;87;20986;-74
2021/05/31 11:22:20;;;;;;;1.57;0.93;;;;;;;15.18;57.84;99942.31;1620652;87;21658;-74
2021/05/31 11:24:59;;;;;;;1.20;1.02;;;;;;;15.27;56.92;99938.48;1585826;89;21613;-74
2021/05/31 11:27:37;;;;;;;2.72;1.00;;;;;;;15.30;57.73;99941.99;1583837;89;21045;-73
2021/05/31 11:30:17;;;;;;;3.30;1.40;;;;;;;15.33;57.22;99938.75;1607463;88;20997;-74
2021/05/31 11:32:44;;;;;;;8.88;1.40;;;;;;;15.34;57.71;99932.80;1606805;89;21742;-70
2021/05/31 11:35:13;;;;;;;6.47;2.45;;;;;;;15.30;58.07;99932.52;1603819;87;21726;-72
2021/05/31 11:37:41;;;;;;;4.60;2.00;;;;;;;15.28;58.24;99940.13;1578762;89;21635;-74
2021/05/31 11:40:29;;;;;;;1.87;1.62;;;;;;;15.29;58.54;99936.33;1602304;89;21343;-76
2021/05/31 11:43:02;;;;;;;11.15;3.60;;;;;;;15.32;58.08;99939.84;1607206;88;21053;-78
2021/05/31 11:45:34;;;;;;;2.17;1.42;;;;;;;15.38;56.88;99929.80;1607394;89;21113;-77
2021/05/31 11:48:13;;;;;;;6.08;3.08;;;;;;;15.42;57.68;99928.16;1607255;88;21087;-72
2021/05/31 11:50:41;;;;;;;5.12;1.20;;;;;;;15.52;57.27;99928.16;1604845;89;21044;-73
2021/05/31 11:53:16;;;;;;;1.80;1.20;;;;;;;15.60;57.52;99932.45;1619450;88;21695;-72
2021/05/31 11:55:42;;;;;;;2.47;1.10;;;;;;;15.73;56.65;99928.33;1620287;87;21111;-70
2021/05/31 11:58:10;;;;;;;2.52;1.40;;;;;;;15.87;56.85;99928.56;1619025;87;21651;-69
2021/05/31 12:00:41;;;;;;;3.30;1.20;;;;;;;15.92;56.40;99925.83;1606029;89;21656;-71